^^
Saratoga-Weather Station Historical Data
Daily Summary for April 7, 2021 Units:  English    Metric   Both
Daily Weekly Monthly Yearly Custom
  High: Low: Average:
Temperature: 72.9 °F 53.4 °F 61.5 °F
Dew Point: 59.7 °F 52 °F 55.9 °F
Humidity: 96% 56% 83%
Wind Speed: 6.9mph 0mph 1.2mph
Wind Gust: 12mph - -
Wind- - SSE
Pressure: 30 in 29.9 in -
Precipitation: 0 in    
Historical Graphs
 
 
Tabular Data for April 7, 2021
Time Temperature Dew Point Pressure Wind Wind Speed Wind Gust Humidity Rainfall Rate (Hourly) solar
00:03 61.2 °F 57.9 °F 29.9 in NE 0.9 mph 2 mph 89% 0 in 0 W/m2
00:08 61 °F 57.7 °F 29.9 in South 0.9 mph 2 mph 89% 0 in 0 W/m2
00:13 61 °F 57.7 °F 29.9 in Calm   1 mph 89% 0 in 0 W/m2
00:18 60.6 °F 57.4 °F 29.9 in Calm   3 mph 89% 0 in 0 W/m2
00:23 60.4 °F 57.2 °F 29.9 in West 2 mph 4 mph 89% 0 in 0 W/m2
00:28 60.3 °F 57.4 °F 29.9 in NW 0.9 mph 4 mph 90% 0 in 0 W/m2
00:33 60.3 °F 57 °F 29.9 in ESE 2 mph 3 mph 89% 0 in 0 W/m2
00:38 60.3 °F 57 °F 29.9 in Calm   4 mph 89% 0 in 0 W/m2
00:43 60.1 °F 57.2 °F 29.9 in Calm   2 mph 90% 0 in 0 W/m2
00:48 60.1 °F 57.2 °F 29.9 in SE 2 mph 3 mph 90% 0 in 0 W/m2
00:53 60.1 °F 57.2 °F 29.9 in Calm   2 mph 90% 0 in 0 W/m2
00:58 60.1 °F 57.2 °F 29.9 in Calm   2 mph 90% 0 in 0 W/m2
01:03 60.1 °F 57.2 °F 29.9 in ENE 0.9 mph 1 mph 90% 0 in 0 W/m2
01:08 59.9 °F 57 °F 29.9 in East 0.9 mph 2 mph 90% 0 in 0 W/m2
01:13 59.7 °F 56.8 °F 29.9 in East 0.9 mph 3 mph 90% 0 in 0 W/m2
01:18 59.5 °F 56.7 °F 29.9 in East 0.9 mph 3 mph 90% 0 in 0 W/m2
01:23 59.5 °F 56.8 °F 29.9 in East 0.9 mph 1 mph 91% 0 in 0 W/m2
01:28 59.2 °F 56.5 °F 29.9 in East 0.9 mph 3 mph 91% 0 in 0 W/m2
01:33 59 °F 56.3 °F 29.9 in East 2 mph 2 mph 91% 0 in 0 W/m2
01:38 58.8 °F 56.5 °F 29.9 in Calm   3 mph 92% 0 in 0 W/m2
01:43 58.6 °F 56.3 °F 29.9 in Calm     92% 0 in 0 W/m2
01:48 58.5 °F 56.1 °F 29.9 in Calm   1 mph 92% 0 in 0 W/m2
01:53 58.5 °F 56.1 °F 29.9 in Calm     92% 0 in 0 W/m2
01:58 58.3 °F 55.9 °F 29.9 in Calm     92% 0 in 0 W/m2
02:03 58.1 °F 55.8 °F 29.9 in Calm     92% 0 in 0 W/m2
02:08 57.9 °F 55.6 °F 29.9 in Calm     92% 0 in 0 W/m2
02:13 57.7 °F 55.4 °F 29.9 in Calm     92% 0 in 0 W/m2
02:18 57.6 °F 55.6 °F 29.9 in Calm     93% 0 in 0 W/m2
02:23 57.6 °F 55.6 °F 29.9 in Calm     93% 0 in 0 W/m2
02:28 57.4 °F 55.4 °F 29.9 in Calm     93% 0 in 0 W/m2
02:33 57.2 °F 55.2 °F 29.9 in Calm   1 mph 93% 0 in 0 W/m2
02:38 57 °F 55 °F 29.9 in Calm     93% 0 in 0 W/m2
02:43 57 °F 55 °F 29.9 in East 0.9 mph 1 mph 93% 0 in 0 W/m2
02:48 57 °F 55.2 °F 29.9 in Calm   1 mph 94% 0 in 0 W/m2
02:53 56.8 °F 55.2 °F 29.9 in Calm   2 mph 94% 0 in 0 W/m2
02:58 57 °F 55.2 °F 29.9 in Calm     94% 0 in 0 W/m2
03:03 56.8 °F 55.2 °F 29.9 in Calm     94% 0 in 0 W/m2
03:08 56.8 °F 55.2 °F 29.9 in Calm     94% 0 in 0 W/m2
03:13 56.7 °F 55 °F 29.9 in Calm     94% 0 in 0 W/m2
03:18 56.5 °F 54.9 °F 29.9 in Calm     94% 0 in 0 W/m2
03:23 56.3 °F 54.7 °F 29.9 in Calm     94% 0 in 0 W/m2
03:28 56.1 °F 54.5 °F 29.9 in Calm     94% 0 in 0 W/m2
03:33 56.1 °F 54.5 °F 29.9 in Calm     94% 0 in 0 W/m2
03:38 55.9 °F 54.3 °F 29.9 in Calm     94% 0 in 0 W/m2
03:43 55.8 °F 54.1 °F 29.9 in Calm     94% 0 in 0 W/m2
03:48 55.8 °F 54.1 °F 29.9 in Calm     94% 0 in 0 W/m2
03:53 55.6 °F 54 °F 29.9 in Calm     94% 0 in 0 W/m2
03:58 55.6 °F 54 °F 29.9 in Calm     94% 0 in 0 W/m2
04:03 55.4 °F 53.8 °F 29.9 in Calm     94% 0 in 0 W/m2
04:08 55.2 °F 53.6 °F 29.9 in Calm     94% 0 in 0 W/m2
04:13 55 °F 53.4 °F 29.9 in Calm     94% 0 in 0 W/m2
04:18 55 °F 53.4 °F 29.9 in Calm     94% 0 in 0 W/m2
04:23 54.9 °F 53.2 °F 29.9 in Calm     94% 0 in 0 W/m2
04:28 54.7 °F 53.1 °F 29.9 in Calm     94% 0 in 0 W/m2
04:33 54.7 °F 53.1 °F 29.9 in Calm     94% 0 in 0 W/m2
04:38 54.5 °F 53.1 °F 29.9 in Calm     95% 0 in 0 W/m2
04:43 54.3 °F 52.9 °F 29.9 in Calm     95% 0 in 0 W/m2
04:48 54.1 °F 52.7 °F 29.9 in Calm     95% 0 in 0 W/m2
04:53 54.1 °F 52.7 °F 29.9 in Calm     95% 0 in 0 W/m2
04:58 54 °F 52.5 °F 29.9 in Calm     95% 0 in 0 W/m2
05:03 54 °F 52.5 °F 29.9 in Calm     95% 0 in 0 W/m2
05:08 54 °F 52.5 °F 29.9 in Calm     95% 0 in 0 W/m2
05:13 54 °F 52.5 °F 29.9 in Calm     95% 0 in 0 W/m2
05:18 53.8 °F 52.3 °F 29.9 in Calm     95% 0 in 0 W/m2
05:23 53.8 °F 52.3 °F 29.9 in Calm     95% 0 in 0 W/m2
05:28 53.8 °F 52.3 °F 29.9 in Calm     95% 0 in 0 W/m2
05:33 53.6 °F 52.2 °F 29.9 in Calm     95% 0 in 0 W/m2
05:38 53.4 °F 52 °F 29.9 in Calm     95% 0 in 0 W/m2
05:43 53.4 °F 52 °F 29.9 in Calm     95% 0 in 0 W/m2
05:48 53.6 °F 52.5 °F 29.9 in Calm     96% 0 in 0 W/m2
05:53 53.8 °F 52.7 °F 29.9 in Calm     96% 0 in 5 W/m2
05:58 53.6 °F 52.5 °F 29.9 in Calm     96% 0 in 5 W/m2
06:03 53.4 °F 52.3 °F 29.9 in Calm     96% 0 in 5 W/m2
06:08 53.6 °F 52.5 °F 29.9 in Calm     96% 0 in 7 W/m2
06:13 53.8 °F 52.7 °F 29.9 in Calm     96% 0 in 14 W/m2
06:18 54 °F 52.9 °F 29.9 in Calm     96% 0 in 19 W/m2
06:23 54 °F 52.9 °F 29.9 in Calm     96% 0 in 26 W/m2
06:28 54.1 °F 53.1 °F 30 in Calm     96% 0 in 37 W/m2
06:33 54.1 °F 53.1 °F 30 in Calm     96% 0 in 62 W/m2
06:38 54.5 °F 53.4 °F 30 in East 0.9 mph 1 mph 96% 0 in 76 W/m2
06:43 54.7 °F 53.6 °F 30 in Calm     96% 0 in 76 W/m2
06:48 55 °F 54 °F 30 in Calm   2 mph 96% 0 in 65 W/m2
06:53 55 °F 54 °F 30 in ESE 0.9 mph 1 mph 96% 0 in 67 W/m2
06:58 55 °F 54 °F 30 in Calm     96% 0 in 58 W/m2
07:03 55.2 °F 54.1 °F 30 in Calm     96% 0 in 63 W/m2
07:08 55.2 °F 54.1 °F 30 in Calm   3 mph 96% 0 in 79 W/m2
07:13 55.4 °F 54.3 °F 30 in Calm   2 mph 96% 0 in 79 W/m2
07:18 55.6 °F 54.5 °F 30 in ENE 2.9 mph 3 mph 96% 0 in 51 W/m2
07:23 55.6 °F 54.5 °F 30 in East 2 mph 2 mph 96% 0 in 49 W/m2
07:28 55.8 °F 54.7 °F 30 in Calm     96% 0 in 51 W/m2
07:33 55.8 °F 54.7 °F 30 in ENE 0.9 mph 2 mph 96% 0 in 53 W/m2
07:38 55.9 °F 54.9 °F 30 in East 2 mph 3 mph 96% 0 in 51 W/m2
07:43 55.9 °F 54.9 °F 30 in East 0.9 mph 2 mph 96% 0 in 54 W/m2
07:48 56.3 °F 54.9 °F 30 in Calm   2 mph 95% 0 in 83 W/m2
07:53 56.7 °F 55.6 °F 30 in ENE 2 mph 3 mph 96% 0 in 220 W/m2
07:58 57 °F 55.9 °F 30 in NNE 2.9 mph 4 mph 96% 0 in 236 W/m2
08:03 57.9 °F 56.5 °F 30 in East 2.9 mph 3 mph 95% 0 in 211 W/m2
08:08 58.6 °F 56.8 °F 30 in ESE 2 mph 4 mph 94% 0 in 220 W/m2
08:13 59.4 °F 57.4 °F 30 in North 2 mph 3 mph 93% 0 in 128 W/m2
08:18 60.1 °F 57.7 °F 30 in ESE 2.9 mph 4 mph 92% 0 in 56 W/m2
08:23 60.6 °F 57.7 °F 30 in NNE 0.9 mph 2 mph 90% 0 in 54 W/m2
08:28 61.2 °F 57.6 °F 30 in North 0.9 mph 4 mph 88% 0 in 53 W/m2
08:33 61.3 °F 57.4 °F 30 in ESE 2 mph 3 mph 87% 0 in 53 W/m2
08:38 61.9 °F 57.6 °F 30 in NE 0.9 mph 3 mph 86% 0 in 51 W/m2
08:43 62.2 °F 57.7 °F 30 in NNE 2.9 mph 3 mph 85% 0 in 53 W/m2
08:48 62.6 °F 58.1 °F 30 in NE 2.9 mph 3 mph 85% 0 in 60 W/m2
08:53 63.1 °F 58.6 °F 30 in NE 2.9 mph 3 mph 85% 0 in 67 W/m2
08:58 63.3 °F 58.5 °F 30 in NNE 2.9 mph 3 mph 84% 0 in 65 W/m2
09:03 63.7 °F 58.1 °F 30 in North 5 mph 5 mph 82% 0 in 58 W/m2
09:08 63.9 °F 58.6 °F 30 in ENE 0.9 mph 4 mph 83% 0 in 90 W/m2
09:13 64 °F 58.1 °F 30 in Calm   3 mph 81% 0 in 244 W/m2
09:18 64 °F 58.1 °F 30 in NE 0.9 mph 1 mph 81% 0 in 455 W/m2
09:23 64.2 °F 58.3 °F 30 in NNW 0.9 mph 3 mph 81% 0 in 494 W/m2
09:28 64.4 °F 58.8 °F 30 in East 2.9 mph 3 mph 82% 0 in 508 W/m2
09:33 64.8 °F 58.5 °F 30 in WNW 2 mph 4 mph 80% 0 in 508 W/m2
09:38 64.9 °F 58.6 °F 30 in ESE 2 mph 2 mph 80% 0 in 519 W/m2
09:43 65.5 °F 58.8 °F 30 in North 2 mph 3 mph 79% 0 in 548 W/m2
09:48 65.7 °F 58.3 °F 30 in SE 2 mph 3 mph 77% 0 in 550 W/m2
09:53 66 °F 58.6 °F 30 in East 0.9 mph 2 mph 77% 0 in 554 W/m2
09:58 66.4 °F 58.3 °F 30 in NNE 0.9 mph 2 mph 75% 0 in 568 W/m2
10:03 66.7 °F 59 °F 30 in ENE 2 mph 2 mph 76% 0 in 578 W/m2
10:08 67.3 °F 59 °F 30 in NNE 2 mph 3 mph 75% 0 in 496 W/m2
10:13 67.8 °F 58.8 °F 30 in WNW 0.9 mph 3 mph 73% 0 in 121 W/m2
10:18 68.2 °F 59.5 °F 30 in ENE 4 mph 6 mph 74% 0 in 647 W/m2
10:23 68 °F 59.7 °F 30 in NE 2 mph 3 mph 75% 0 in 705 W/m2
10:28 68.2 °F 59.5 °F 30 in NE 0.9 mph 2 mph 74% 0 in 812 W/m2
10:33 68.5 °F 59.2 °F 30 in Calm   3 mph 72% 0 in 921 W/m2
10:38 68.7 °F 59.4 °F 30 in ESE 0.9 mph 3 mph 72% 0 in 367 W/m2
10:43 69.1 °F 57.7 °F 30 in Calm   3 mph 67% 0 in 397 W/m2
10:48 68.9 °F 57.9 °F 30 in WNW 2 mph 3 mph 68% 0 in 401 W/m2
10:53 68.7 °F 57.4 °F 30 in East 0.9 mph 2 mph 67% 0 in 338 W/m2
10:58 68.9 °F 57 °F 30 in Calm   3 mph 66% 0 in 1000 W/m2
11:04 69.1 °F 56.8 °F 30 in Calm   2 mph 65% 0 in 443 W/m2
11:09 69.3 °F 57 °F 30 in West 6 mph 7 mph 65% 0 in 789 W/m2
11:14 69.3 °F 57.4 °F 30 in WSW 4 mph 4 mph 66% 0 in 758 W/m2
11:19 69.1 °F 56.5 °F 30 in WNW 4 mph 4 mph 64% 0 in 766 W/m2
11:24 69.1 °F 55.9 °F 30 in West 6.9 mph 7 mph 63% 0 in 701 W/m2
11:29 69.3 °F 56.5 °F 30 in NW 0.9 mph 5 mph 64% 0 in 872 W/m2
11:34 69.3 °F 56.5 °F 30 in NW 0.9 mph 8 mph 64% 0 in 381 W/m2
11:39 69.1 °F 55.9 °F 30 in NW 2 mph 5 mph 63% 0 in 290 W/m2
11:44 69.1 °F 56.5 °F 30 in East 2.9 mph 6 mph 64% 0 in 301 W/m2
11:49 69.1 °F 56.8 °F 30 in WNW 2.9 mph 3 mph 65% 0 in 211 W/m2
11:54 69.3 °F 56.5 °F 30 in NE 2.9 mph 4 mph 64% 0 in 394 W/m2
11:59 69.6 °F 56.8 °F 30 in WNW 2.9 mph 7 mph 64% 0 in 904 W/m2
12:04 70 °F 56.8 °F 30 in NE 4 mph 4 mph 63% 0 in 967 W/m2
12:09 70.3 °F 58.5 °F 30 in West 4 mph 8 mph 66% 0 in 1048 W/m2
12:14 70.7 °F 56.7 °F 30 in NE 0.9 mph 2 mph 61% 0 in 352 W/m2
12:19 70.5 °F 56.8 °F 30 in WSW 2.9 mph 8 mph 62% 0 in 246 W/m2
12:24 69.8 °F 56.7 °F 30 in SSW 2.9 mph 4 mph 63% 0 in 348 W/m2
12:29 69.6 °F 56.5 °F 30 in NE 0.9 mph 6 mph 63% 0 in 708 W/m2
12:34 69.6 °F 56.8 °F 30 in WSW 4.9 mph 7 mph 64% 0 in 963 W/m2
12:39 69.8 °F 56.7 °F 30 in SW 0.9 mph 2 mph 63% 0 in 287 W/m2
12:44 70.2 °F 57 °F 30 in ENE 0.9 mph 5 mph 63% 0 in 353 W/m2
12:49 70.2 °F 56.5 °F 30 in West 2 mph 3 mph 62% 0 in 220 W/m2
12:54 70.2 °F 57.9 °F 30 in Calm   2 mph 65% 0 in 260 W/m2
12:59 70.9 °F 57.2 °F 30 in SE 0.9 mph 5 mph 62% 0 in 1139 W/m2
13:04 71.8 °F 58.5 °F 30 in WSW 2 mph 3 mph 63% 0 in 1097 W/m2
13:09 72 °F 57.7 °F 30 in WNW 2 mph 3 mph 61% 0 in 424 W/m2
13:14 71.4 °F 55.9 °F 30 in WSW 4 mph 6 mph 58% 0 in 255 W/m2
13:19 70.9 °F 56.3 °F 30 in WNW 4 mph 5 mph 60% 0 in 227 W/m2
13:24 70.3 °F 55.8 °F 30 in WSW 0.9 mph 7 mph 60% 0 in 241 W/m2
13:29 70.3 °F 56.7 °F 30 in Calm   4 mph 62% 0 in 1023 W/m2
13:34 71.1 °F 55.9 °F 30 in WSW 6.9 mph 7 mph 59% 0 in 1021 W/m2
13:39 72 °F 57.7 °F 30 in WNW 2 mph 2 mph 61% 0 in 1072 W/m2
13:44 72.7 °F 57 °F 30 in West 6.9 mph 8 mph 58% 0 in 1097 W/m2
13:49 72.3 °F 56.3 °F 30 in Calm   8 mph 57% 0 in 1114 W/m2
13:54 72.9 °F 56.3 °F 30 in NE 2 mph 10 mph 56% 0 in 1049 W/m2
13:59 72.9 °F 56.7 °F 30 in NW 2 mph 5 mph 57% 0 in 534 W/m2
14:04 72.9 °F 56.7 °F 30 in WSW 4 mph 11 mph 57% 0 in 281 W/m2
14:09 72.9 °F 57.7 °F 30 in WNW 6 mph 12 mph 59% 0 in 287 W/m2
14:14 72.5 °F 56.5 °F 30 in WSW 4.9 mph 7 mph 57% 0 in 250 W/m2
14:19 72 °F 55.9 °F 30 in WSW 0.9 mph 12 mph 57% 0 in 223 W/m2
Juneau County Weather
Compliments of Weather Underground - 4 mb